createdAt,value
2022-10-15T00:00:36.885Z,10.77
2022-10-15T00:03:03.448Z,12.10
2022-10-15T00:05:29.801Z,16.23
2022-10-15T00:07:56.273Z,14.33
2022-10-15T00:10:23.191Z,13.83
2022-10-15T00:12:49.825Z,13.33
2022-10-15T00:15:16.247Z,12.83
2022-10-15T00:17:42.625Z,13.77
2022-10-15T00:20:10.040Z,14.00
2022-10-15T00:22:36.959Z,15.17
2022-10-15T00:25:04.847Z,13.00
2022-10-15T00:27:31.225Z,13.80
2022-10-15T00:30:00.026Z,13.37
2022-10-15T00:32:26.577Z,16.20
2022-10-15T00:34:52.941Z,12.50
2022-10-15T00:37:20.879Z,12.43
2022-10-15T00:39:47.329Z,17.50
2022-10-15T00:42:13.916Z,13.40
2022-10-15T00:44:48.036Z,13.83
2022-10-15T00:47:20.608Z,12.80
2022-10-15T00:49:55.496Z,11.70
2022-10-15T00:52:43.837Z,11.97
2022-10-15T00:55:13.285Z,13.63
2022-10-15T00:57:40.195Z,11.50
2022-10-15T01:00:09.695Z,12.93
2022-10-15T01:02:38.537Z,12.60
2022-10-15T01:05:05.697Z,12.00
2022-10-15T01:07:32.046Z,18.23
2022-10-15T01:09:58.540Z,15.23
2022-10-15T01:12:40.178Z,15.20
2022-10-15T01:15:33.814Z,14.93
2022-10-15T01:18:10.077Z,13.13
2022-10-15T01:21:00.726Z,11.53
2022-10-15T01:23:52.661Z,15.33
2022-10-15T01:26:49.223Z,16.67
2022-10-15T01:29:58.256Z,15.13
2022-10-15T01:32:28.406Z,16.13
2022-10-15T01:35:06.860Z,14.67
2022-10-15T01:37:59.600Z,19.57
2022-10-15T01:40:35.126Z,18.00
2022-10-15T01:43:09.390Z,15.03
2022-10-15T01:45:51.292Z,25.70
2022-10-15T01:48:37.059Z,27.23
2022-10-15T01:51:05.980Z,35.87
2022-10-15T01:53:35.467Z,28.37
2022-10-15T01:56:08.798Z,63.00
2022-10-15T01:58:38.469Z,61.23
2022-10-15T02:01:05.427Z,63.47
2022-10-15T02:03:47.279Z,59.70
2022-10-15T02:06:20.178Z,53.90
2022-10-15T02:09:14.373Z,44.80
2022-10-15T02:11:54.982Z,43.83
2022-10-15T02:14:28.131Z,52.97
2022-10-15T02:17:08.235Z,56.00
2022-10-15T02:19:49.383Z,83.23
2022-10-15T02:22:22.014Z,90.97
2022-10-15T02:25:02.537Z,80.03
2022-10-15T02:27:32.717Z,89.63
2022-10-15T02:30:00.099Z,91.23
2022-10-15T02:32:28.360Z,88.60
2022-10-15T02:34:55.656Z,92.30
2022-10-15T02:37:25.673Z,92.03
2022-10-15T02:39:52.140Z,89.13
2022-10-15T02:42:19.267Z,81.03
2022-10-15T02:44:47.736Z,72.37
2022-10-15T02:47:14.745Z,62.80
2022-10-15T02:49:41.151Z,62.20
2022-10-15T02:52:07.502Z,69.43
2022-10-15T02:54:33.894Z,62.00
2022-10-15T02:57:00.531Z,56.27
2022-10-15T02:59:27.081Z,44.30
2022-10-15T03:01:54.516Z,37.40
2022-10-15T03:04:21.414Z,32.53
2022-10-15T03:06:47.848Z,30.97
2022-10-15T03:09:14.202Z,30.20
2022-10-15T03:11:40.670Z,26.57
2022-10-15T03:14:07.236Z,27.63
2022-10-15T03:16:34.128Z,28.60
2022-10-15T03:19:00.497Z,38.60
2022-10-15T03:21:30.754Z,29.43
2022-10-15T03:24:03.236Z,33.47
2022-10-15T03:26:29.592Z,34.63
2022-10-15T03:28:56.048Z,23.97
2022-10-15T03:31:33.259Z,29.40
2022-10-15T03:34:01.885Z,28.73
2022-10-15T03:36:28.227Z,26.97
2022-10-15T03:38:54.672Z,30.00
2022-10-15T03:41:21.376Z,36.00
2022-10-15T03:43:48.788Z,31.47
2022-10-15T03:46:16.432Z,26.80
2022-10-15T03:48:49.089Z,27.43
2022-10-15T03:51:18.193Z,25.07
2022-10-15T03:53:51.254Z,22.63
2022-10-15T03:56:17.560Z,29.10
2022-10-15T03:58:43.832Z,24.17
2022-10-15T04:01:16.685Z,29.97
2022-10-15T04:03:43.051Z,28.67
2022-10-15T04:06:09.672Z,30.73
2022-10-15T04:08:36.981Z,28.00
2022-10-15T04:11:17.836Z,27.33
2022-10-15T04:13:47.683Z,28.83
2022-10-15T04:16:14.212Z,31.87
2022-10-15T04:18:40.529Z,30.90
2022-10-15T04:21:06.901Z,26.43
2022-10-15T04:23:33.681Z,24.70
2022-10-15T04:26:26.692Z,25.57
2022-10-15T04:28:53.179Z,23.03
2022-10-15T04:31:21.845Z,23.77
2022-10-15T04:33:49.463Z,22.17
2022-10-15T04:38:59.037Z,27.87
2022-10-15T04:41:32.445Z,21.90
2022-10-15T04:44:03.348Z,24.17
2022-10-15T04:46:31.367Z,27.87
2022-10-15T04:49:02.020Z,26.57
2022-10-15T04:51:28.356Z,26.23
2022-10-15T04:54:01.700Z,24.03
2022-10-15T04:56:29.370Z,24.20
2022-10-15T04:58:56.285Z,28.10
2022-10-15T05:01:25.412Z,25.13
2022-10-15T05:04:00.148Z,21.10
2022-10-15T05:06:27.473Z,26.83
2022-10-15T05:08:58.926Z,30.63
2022-10-15T05:11:28.625Z,36.43
2022-10-15T05:13:58.027Z,30.97
2022-10-15T05:16:26.368Z,29.77
2022-10-15T05:18:57.276Z,37.13
2022-10-15T05:21:23.946Z,31.93
2022-10-15T05:23:54.389Z,37.20
2022-10-15T05:26:40.673Z,32.97
2022-10-15T05:29:07.726Z,27.43
2022-10-15T05:31:34.497Z,33.60
2022-10-15T05:34:09.177Z,29.83
2022-10-15T05:36:43.606Z,24.70
2022-10-15T05:39:12.040Z,33.40
2022-10-15T05:41:43.262Z,25.43
2022-10-15T05:44:09.651Z,28.33
2022-10-15T05:46:37.021Z,23.90
2022-10-15T05:49:03.569Z,30.70
2022-10-15T05:51:39.739Z,30.57
2022-10-15T05:54:10.929Z,26.33
2022-10-15T05:56:38.416Z,27.07
2022-10-15T05:59:04.724Z,21.40
2022-10-15T06:01:31.034Z,27.97
2022-10-15T06:03:57.324Z,27.27
2022-10-15T06:06:26.422Z,27.23
2022-10-15T06:08:54.262Z,22.20
2022-10-15T06:11:20.940Z,24.33
2022-10-15T06:13:47.736Z,23.73
2022-10-15T06:16:18.017Z,22.87
2022-10-15T06:18:47.397Z,26.73
2022-10-15T06:21:13.857Z,25.73
2022-10-15T06:23:40.186Z,30.43
2022-10-15T06:26:07.501Z,31.13
2022-10-15T06:28:34.268Z,27.70
2022-10-15T06:31:01.475Z,33.43
2022-10-15T06:33:30.536Z,31.80
2022-10-15T06:36:01.857Z,30.37
2022-10-15T06:38:28.137Z,33.70
2022-10-15T06:40:54.458Z,25.47
2022-10-15T06:43:20.752Z,29.33
2022-10-15T06:45:47.068Z,35.77
2022-10-15T06:48:16.801Z,26.50
2022-10-15T06:50:43.507Z,31.83
2022-10-15T06:53:09.783Z,27.57
2022-10-15T06:55:36.105Z,22.10
2022-10-15T06:58:02.459Z,33.43
2022-10-15T07:00:29.199Z,34.30
2022-10-15T07:02:55.526Z,36.27
2022-10-15T07:05:21.820Z,39.07
2022-10-15T07:07:52.730Z,29.70
2022-10-15T07:12:51.631Z,21.43
2022-10-15T07:15:19.074Z,32.10
2022-10-15T07:17:49.062Z,24.93
2022-10-15T07:20:19.988Z,26.77
2022-10-15T07:22:48.737Z,29.97
2022-10-15T07:25:15.385Z,29.97
2022-10-15T07:27:42.429Z,27.00
2022-10-15T07:30:09.383Z,23.83
2022-10-15T07:32:35.672Z,28.90
2022-10-15T07:35:02.033Z,23.97
2022-10-15T07:37:28.788Z,19.73
2022-10-15T07:39:55.487Z,24.70
2022-10-15T07:42:21.899Z,21.90
2022-10-15T07:44:48.162Z,17.70
2022-10-15T07:47:15.757Z,24.30
2022-10-15T07:49:42.117Z,20.77
2022-10-15T07:52:08.626Z,24.20
2022-10-15T07:54:35.801Z,23.60
2022-10-15T07:57:02.214Z,17.97
2022-10-15T07:59:28.633Z,22.33
2022-10-15T08:01:54.869Z,22.60
2022-10-15T08:04:21.142Z,19.97
2022-10-15T08:06:49.612Z,18.17
2022-10-15T08:09:16.485Z,19.43
2022-10-15T08:11:42.862Z,29.73
2022-10-15T08:14:09.413Z,22.33
2022-10-15T08:16:36.064Z,20.87
2022-10-15T08:19:02.558Z,26.07
2022-10-15T08:21:28.798Z,25.50
2022-10-15T08:23:55.068Z,26.13
2022-10-15T08:26:29.571Z,23.00
2022-10-15T08:28:56.003Z,14.67
2022-10-15T08:31:22.312Z,18.83
2022-10-15T08:33:50.118Z,17.47
2022-10-15T08:36:16.448Z,15.17
2022-10-15T08:38:44.476Z,16.67
2022-10-15T08:41:32.599Z,13.70
2022-10-15T08:43:59.827Z,12.33
2022-10-15T08:46:35.312Z,12.13
2022-10-15T08:49:02.605Z,10.27
2022-10-15T08:51:44.298Z,19.97
2022-10-15T08:54:16.740Z,10.13
2022-10-15T08:56:48.212Z,9.63
2022-10-15T08:59:40.100Z,9.50
2022-10-15T09:02:25.673Z,9.63
2022-10-15T09:05:21.475Z,8.93
2022-10-15T09:07:54.988Z,8.33
2022-10-15T09:10:36.010Z,7.17
2022-10-15T09:13:04.572Z,7.60
2022-10-15T09:15:51.798Z,5.03
2022-10-15T09:18:23.442Z,5.30
2022-10-15T09:20:49.966Z,5.60
2022-10-15T09:23:26.223Z,5.03
2022-10-15T09:26:03.757Z,4.10
2022-10-15T09:28:41.684Z,3.97
2022-10-15T09:31:13.211Z,3.50
2022-10-15T09:33:56.181Z,3.67
2022-10-15T09:36:31.674Z,2.87
2022-10-15T09:39:09.816Z,15.13
2022-10-15T09:41:57.866Z,2.47
2022-10-15T09:44:27.802Z,2.27
2022-10-15T09:46:54.140Z,2.30
2022-10-15T09:49:24.428Z,1.90
2022-10-15T09:52:10.990Z,2.10
2022-10-15T09:54:46.988Z,2.30
2022-10-15T09:57:14.863Z,2.17
2022-10-15T09:59:56.924Z,2.27
2022-10-15T10:02:25.814Z,1.73
2022-10-15T10:04:52.601Z,1.70
2022-10-15T10:07:31.057Z,1.40
2022-10-15T10:10:00.692Z,1.73
2022-10-15T10:12:34.690Z,1.47
2022-10-15T10:15:04.093Z,1.20
2022-10-15T10:17:31.213Z,1.40
2022-10-15T10:20:10.620Z,1.50
2022-10-15T10:22:50.442Z,3.60
2022-10-15T10:25:27.449Z,1.57
2022-10-15T10:27:55.977Z,1.33
2022-10-15T10:30:23.310Z,1.33
2022-10-15T10:32:57.056Z,1.50
2022-10-15T10:35:27.137Z,1.57
2022-10-15T10:37:53.725Z,5.00
2022-10-15T10:40:32.265Z,1.80
2022-10-15T10:43:16.531Z,1.40
2022-10-15T10:46:16.201Z,1.00
2022-10-15T10:48:52.147Z,1.20
2022-10-15T10:51:22.750Z,1.30
2022-10-15T10:54:01.056Z,1.20
2022-10-15T10:56:33.543Z,1.10
2022-10-15T10:59:22.489Z,1.10
2022-10-15T11:01:49.398Z,1.50
2022-10-15T11:04:26.844Z,1.20
2022-10-15T11:06:56.084Z,1.23
2022-10-15T11:09:22.302Z,1.13
2022-10-15T11:12:03.891Z,1.20
2022-10-15T11:14:55.700Z,1.13
2022-10-15T11:17:46.867Z,1.87
2022-10-15T11:20:39.002Z,1.03
2022-10-15T11:23:27.507Z,1.00
2022-10-15T11:25:57.646Z,1.10
2022-10-15T11:28:42.233Z,1.30
2022-10-15T11:31:08.523Z,1.23
2022-10-15T11:33:41.302Z,4.03
2022-10-15T11:36:31.655Z,0.90
2022-10-15T11:39:17.293Z,1.20
2022-10-15T11:42:02.910Z,1.20
2022-10-15T11:44:42.982Z,1.00
2022-10-15T11:47:17.160Z,1.40
2022-10-15T11:50:03.116Z,1.73
2022-10-15T11:53:05.787Z,1.30
2022-10-15T11:56:00.027Z,1.10
2022-10-15T11:58:35.088Z,1.13
2022-10-15T12:01:11.141Z,1.20
2022-10-15T12:03:49.031Z,1.23
2022-10-15T12:06:19.218Z,1.30
2022-10-15T12:08:47.342Z,1.20
2022-10-15T12:11:13.609Z,1.40
2022-10-15T12:14:07.734Z,1.50
2022-10-15T12:16:45.075Z,1.50
2022-10-15T12:19:17.541Z,1.20
2022-10-15T12:21:59.525Z,1.10
2022-10-15T12:24:44.330Z,1.00
2022-10-15T12:27:19.851Z,2.97
2022-10-15T12:30:12.328Z,1.20
2022-10-15T12:32:42.440Z,1.27
2022-10-15T12:35:14.505Z,1.57
2022-10-15T12:37:43.469Z,1.40
2022-10-15T12:40:21.801Z,1.77
2022-10-15T12:42:59.349Z,1.13
2022-10-15T12:45:40.162Z,1.60
2022-10-15T12:48:18.004Z,1.57
2022-10-15T12:50:45.815Z,1.60
2022-10-15T12:53:32.468Z,4.33
2022-10-15T12:56:15.721Z,1.70
2022-10-15T12:58:44.860Z,1.07
2022-10-15T13:01:11.112Z,1.20
2022-10-15T13:03:39.220Z,1.70
2022-10-15T13:06:20.661Z,2.30
2022-10-15T13:09:05.741Z,2.10
2022-10-15T13:11:40.779Z,2.27
2022-10-15T13:14:25.408Z,1.40
2022-10-15T13:16:56.202Z,1.50
2022-10-15T13:19:23.814Z,1.30
2022-10-15T13:21:56.500Z,2.53
2022-10-15T13:24:30.341Z,1.37
2022-10-15T13:27:00.098Z,1.37
2022-10-15T13:29:28.633Z,1.67
2022-10-15T13:31:57.351Z,5.87
2022-10-15T13:34:34.869Z,1.30
2022-10-15T13:37:02.032Z,2.40
2022-10-15T13:39:35.134Z,1.43
2022-10-15T13:42:12.991Z,1.70
2022-10-15T13:44:39.768Z,1.23
2022-10-15T13:47:24.861Z,1.10
2022-10-15T13:49:51.241Z,1.40
2022-10-15T13:52:18.014Z,1.73
2022-10-15T13:54:46.829Z,1.90
2022-10-15T13:57:17.939Z,1.27
2022-10-15T13:59:46.104Z,1.50
2022-10-15T14:02:12.512Z,1.60
2022-10-15T14:04:40.797Z,1.40
2022-10-15T14:07:27.525Z,2.10
2022-10-15T14:09:54.324Z,3.87
2022-10-15T14:12:20.670Z,1.47
2022-10-15T14:14:49.093Z,1.30
2022-10-15T14:17:26.848Z,1.23
2022-10-15T14:22:51.128Z,1.30
2022-10-15T14:25:23.456Z,4.43
2022-10-15T14:27:49.907Z,2.50
2022-10-15T14:30:26.515Z,5.33
2022-10-15T14:32:52.934Z,1.60
2022-10-15T14:35:37.545Z,1.67
2022-10-15T14:38:15.197Z,2.10
2022-10-15T14:40:55.863Z,2.47
2022-10-15T14:43:32.282Z,1.83
2022-10-15T14:46:01.505Z,2.20
2022-10-15T14:48:31.196Z,14.10
2022-10-15T14:51:00.221Z,2.40
2022-10-15T14:53:27.969Z,2.40
2022-10-15T14:55:58.644Z,2.40
2022-10-15T14:58:27.555Z,3.20
2022-10-15T15:01:02.891Z,3.03
2022-10-15T15:03:30.749Z,1.57
2022-10-15T15:05:58.208Z,1.77
2022-10-15T15:08:25.644Z,2.37
2022-10-15T15:10:56.410Z,3.13
2022-10-15T15:13:27.944Z,2.57
2022-10-15T15:15:54.303Z,2.93
2022-10-15T15:18:21.084Z,3.03
2022-10-15T15:20:49.537Z,2.07
2022-10-15T15:23:25.655Z,2.70
2022-10-15T15:25:52.941Z,2.10
2022-10-15T15:28:22.201Z,6.03
2022-10-15T15:30:57.076Z,3.60
2022-10-15T15:33:23.894Z,1.93
2022-10-15T15:35:51.214Z,2.17
2022-10-15T15:38:24.512Z,2.37
2022-10-15T15:40:52.004Z,2.47
2022-10-15T15:43:18.930Z,2.20
2022-10-15T15:45:46.423Z,2.27
2022-10-15T15:48:12.849Z,2.20
2022-10-15T15:50:39.212Z,3.00
2022-10-15T15:53:05.625Z,2.70
2022-10-15T15:55:32.001Z,3.40
2022-10-15T15:57:58.314Z,3.27
2022-10-15T16:00:24.675Z,3.00
2022-10-15T16:02:54.074Z,3.33
2022-10-15T16:05:24.386Z,3.00
2022-10-15T16:07:50.849Z,5.50
2022-10-15T16:10:17.538Z,3.97
2022-10-15T16:12:44.378Z,3.63
2022-10-15T16:15:13.593Z,3.10
2022-10-15T16:17:41.439Z,3.73
2022-10-15T16:20:08.482Z,4.77
2022-10-15T16:22:34.722Z,4.27
2022-10-15T16:25:01.032Z,3.63
2022-10-15T16:27:27.735Z,3.87
2022-10-15T16:29:54.287Z,3.07
2022-10-15T16:32:20.701Z,3.30
2022-10-15T16:34:47.064Z,3.67
2022-10-15T16:37:13.333Z,7.77
2022-10-15T16:39:39.637Z,4.87
2022-10-15T16:42:06.359Z,3.67
2022-10-15T16:44:32.718Z,4.10
2022-10-15T16:46:59.064Z,3.30
2022-10-15T16:49:26.364Z,3.10
2022-10-15T16:51:52.762Z,2.37
2022-10-15T16:54:19.869Z,3.00
2022-10-15T16:56:49.171Z,2.57
2022-10-15T16:59:20.336Z,2.17
2022-10-15T17:01:47.231Z,2.13
2022-10-15T17:04:13.609Z,1.90
2022-10-15T17:06:39.974Z,1.93
2022-10-15T17:09:06.568Z,1.50
2022-10-15T17:11:41.848Z,1.30
2022-10-15T17:14:11.263Z,1.80
2022-10-15T17:16:46.223Z,1.73
2022-10-15T17:19:14.680Z,1.73
2022-10-15T17:21:42.573Z,1.67
2022-10-15T17:24:12.617Z,15.87
2022-10-15T17:26:40.501Z,2.40
2022-10-15T17:29:10.824Z,2.60
2022-10-15T17:31:37.556Z,3.50
2022-10-15T17:34:07.167Z,3.97
2022-10-15T17:36:37.604Z,2.90
2022-10-15T17:39:04.399Z,2.30
2022-10-15T17:41:31.234Z,5.30
2022-10-15T17:43:58.162Z,3.13
2022-10-15T17:46:27.225Z,2.37
2022-10-15T17:48:54.728Z,2.30
2022-10-15T17:51:27.412Z,4.43
2022-10-15T17:53:57.303Z,2.80
2022-10-15T17:56:26.804Z,3.13
2022-10-15T17:58:56.739Z,2.90
2022-10-15T18:01:39.150Z,2.90
2022-10-15T18:04:12.760Z,2.70
2022-10-15T18:06:42.177Z,2.07
2022-10-15T18:09:12.037Z,1.70
2022-10-15T18:11:38.405Z,1.70
2022-10-15T18:14:04.734Z,1.90
2022-10-15T18:16:32.141Z,1.60
2022-10-15T18:18:58.567Z,2.50
2022-10-15T18:21:26.257Z,2.77
2022-10-15T18:23:56.238Z,2.10
2022-10-15T18:26:23.210Z,3.00
2022-10-15T18:28:52.255Z,2.90
2022-10-15T18:31:19.566Z,2.43
2022-10-15T18:33:49.022Z,2.13
2022-10-15T18:36:18.088Z,2.73
2022-10-15T18:38:44.437Z,2.73
2022-10-15T18:41:15.135Z,2.23
2022-10-15T18:43:41.576Z,2.40
2022-10-15T18:46:08.088Z,2.77
2022-10-15T18:48:36.777Z,3.37
2022-10-15T18:51:08.351Z,5.07
2022-10-15T18:53:35.616Z,3.13
2022-10-15T18:56:02.220Z,2.87
2022-10-15T18:58:28.579Z,2.43
2022-10-15T19:00:54.818Z,7.30
2022-10-15T19:03:21.780Z,3.83
2022-10-15T19:05:50.701Z,3.30
2022-10-15T19:08:20.715Z,3.80
2022-10-15T19:10:47.780Z,3.53
2022-10-15T19:13:14.111Z,3.87
2022-10-15T19:15:40.415Z,4.00
2022-10-15T19:18:10.918Z,3.50
2022-10-15T19:20:40.469Z,4.57
2022-10-15T19:23:08.436Z,4.10
2022-10-15T19:25:34.705Z,4.47
2022-10-15T19:28:01.092Z,3.80
2022-10-15T19:30:28.321Z,3.47
2022-10-15T19:32:54.684Z,11.53
2022-10-15T19:35:20.991Z,3.90
2022-10-15T19:37:49.488Z,4.33
2022-10-15T19:40:15.856Z,4.20
2022-10-15T19:42:42.149Z,3.83
2022-10-15T19:45:08.940Z,4.30
2022-10-15T19:47:35.279Z,4.50
2022-10-15T19:50:01.509Z,3.83
2022-10-15T19:52:27.741Z,3.47
2022-10-15T19:54:54.047Z,10.90
2022-10-15T19:57:20.621Z,4.37
2022-10-15T19:59:47.173Z,5.00
2022-10-15T20:02:13.484Z,4.73
2022-10-15T20:04:39.807Z,10.80
2022-10-15T20:07:06.051Z,4.80
2022-10-15T20:09:32.454Z,5.03
2022-10-15T20:11:58.787Z,4.90
2022-10-15T20:14:25.142Z,4.47
2022-10-15T20:16:51.446Z,3.90
2022-10-15T20:19:20.554Z,4.10
2022-10-15T20:21:46.831Z,4.20
2022-10-15T20:24:13.190Z,5.10
2022-10-15T20:26:39.639Z,8.20
2022-10-15T20:29:06.048Z,4.63
2022-10-15T20:31:34.749Z,15.57
2022-10-15T20:34:02.142Z,3.70
2022-10-15T20:36:28.635Z,3.97
2022-10-15T20:38:57.150Z,4.30
2022-10-15T20:41:23.461Z,3.40
2022-10-15T20:43:53.711Z,4.43
2022-10-15T20:46:23.479Z,2.80
2022-10-15T20:48:50.332Z,4.03
2022-10-15T20:51:18.444Z,2.23
2022-10-15T20:53:45.708Z,6.87
2022-10-15T20:56:12.028Z,2.60
2022-10-15T20:58:38.401Z,3.73
2022-10-15T21:01:05.108Z,3.10
2022-10-15T21:03:31.469Z,3.27
2022-10-15T21:05:57.809Z,4.17
2022-10-15T21:08:24.492Z,4.23
2022-10-15T21:10:50.834Z,3.77
2022-10-15T21:13:17.164Z,11.07
2022-10-15T21:15:43.457Z,10.57
2022-10-15T21:18:09.833Z,5.17
2022-10-15T21:20:36.230Z,3.73
2022-10-15T21:23:02.564Z,4.03
2022-10-15T21:25:28.918Z,4.83
2022-10-15T21:27:55.179Z,3.80
2022-10-15T21:30:21.420Z,4.10
2022-10-15T21:32:47.767Z,3.80
2022-10-15T21:35:14.055Z,5.60
2022-10-15T21:37:40.298Z,3.63
2022-10-15T21:40:07.540Z,3.07
2022-10-15T21:42:34.011Z,3.43
2022-10-15T21:45:00.728Z,3.23
2022-10-15T21:47:27.227Z,3.90
2022-10-15T21:49:53.733Z,3.83
2022-10-15T21:52:20.039Z,3.80
2022-10-15T21:54:46.388Z,3.57
2022-10-15T21:57:12.741Z,3.83
2022-10-15T21:59:38.998Z,6.13
2022-10-15T22:02:05.402Z,4.23
2022-10-15T22:04:35.446Z,3.87
2022-10-15T22:07:02.197Z,4.17
2022-10-15T22:09:28.532Z,4.37
2022-10-15T22:11:54.884Z,4.80
2022-10-15T22:14:21.235Z,4.50
2022-10-15T22:16:47.466Z,4.97
2022-10-15T22:19:15.941Z,3.27
2022-10-15T22:21:42.432Z,6.47
2022-10-15T22:24:12.797Z,3.23
2022-10-15T22:26:42.559Z,3.53
2022-10-15T22:29:17.002Z,3.07
2022-10-15T22:31:43.364Z,3.20
2022-10-15T22:34:09.765Z,3.63
2022-10-15T22:36:36.123Z,11.87
2022-10-15T22:39:05.654Z,3.90
2022-10-15T22:41:35.277Z,2.93
2022-10-15T22:44:01.537Z,3.07
2022-10-15T22:46:28.427Z,3.20
2022-10-15T22:48:54.899Z,2.53
2022-10-15T22:51:22.001Z,3.60
2022-10-15T22:53:48.347Z,4.00
2022-10-15T22:56:16.561Z,4.17
2022-10-15T22:58:43.440Z,3.40
2022-10-15T23:01:17.664Z,3.80
2022-10-15T23:03:46.837Z,2.83
2022-10-15T23:06:14.004Z,3.70
2022-10-15T23:08:40.858Z,3.70
2022-10-15T23:11:09.444Z,3.20
2022-10-15T23:13:36.536Z,3.60
2022-10-15T23:16:11.904Z,3.33
2022-10-15T23:18:38.261Z,3.03
2022-10-15T23:21:15.666Z,3.13
2022-10-15T23:23:42.644Z,4.23
2022-10-15T23:26:12.639Z,2.90
2022-10-15T23:28:39.469Z,3.03
2022-10-15T23:31:06.084Z,3.77
2022-10-15T23:33:32.743Z,3.50
2022-10-15T23:36:01.402Z,3.93
2022-10-15T23:38:28.357Z,7.27
2022-10-15T23:41:02.525Z,3.60
2022-10-15T23:43:28.888Z,3.37
2022-10-15T23:45:55.244Z,2.77
2022-10-15T23:48:22.358Z,4.83
2022-10-15T23:50:48.841Z,4.90
2022-10-15T23:53:15.210Z,3.60
2022-10-15T23:55:42.295Z,3.47
2022-10-15T23:58:08.894Z,3.10
